createdAt,value
2022-11-28T00:01:39.921Z,8.28
2022-11-28T00:04:08.113Z,8.35
2022-11-28T00:06:38.692Z,8.37
2022-11-28T00:09:06.428Z,8.34
2022-11-28T00:11:33.160Z,8.28
2022-11-28T00:14:00.191Z,8.24
2022-11-28T00:16:26.912Z,8.24
2022-11-28T00:18:55.112Z,8.23
2022-11-28T00:21:22.963Z,8.17
2022-11-28T00:23:50.114Z,8.12
2022-11-28T00:26:19.207Z,8.10
2022-11-28T00:28:48.948Z,8.08
2022-11-28T00:31:21.457Z,8.15
2022-11-28T00:33:50.934Z,8.16
2022-11-28T00:36:26.988Z,8.12
2022-11-28T00:38:54.426Z,8.10
2022-11-28T00:41:24.051Z,8.11
2022-11-28T00:43:51.786Z,8.13
2022-11-28T00:46:20.419Z,8.09
2022-11-28T00:48:48.014Z,8.03
2022-11-28T00:51:18.244Z,8.04
2022-11-28T00:53:48.115Z,8.06
2022-11-28T00:56:19.332Z,8.05
2022-11-28T00:58:47.789Z,8.06
2022-11-28T01:01:17.815Z,8.09
2022-11-28T01:03:46.270Z,8.10
2022-11-28T01:06:13.155Z,8.12
2022-11-28T01:08:39.913Z,8.12
2022-11-28T01:11:12.658Z,8.19
2022-11-28T01:13:40.341Z,8.27
2022-11-28T01:16:07.800Z,8.27
2022-11-28T01:18:34.862Z,8.28
2022-11-28T01:21:02.363Z,8.33
2022-11-28T01:23:29.083Z,8.34
2022-11-28T01:25:55.811Z,8.37
2022-11-28T01:28:22.787Z,8.36
2022-11-28T01:30:49.634Z,8.35
2022-11-28T01:33:16.319Z,8.31
2022-11-28T01:35:54.359Z,8.34
2022-11-28T01:38:21.078Z,8.26
2022-11-28T01:40:47.733Z,8.18
2022-11-28T01:43:14.548Z,8.11
2022-11-28T01:45:41.816Z,8.05
2022-11-28T01:48:11.521Z,8.03
2022-11-28T01:50:38.985Z,8.03
2022-11-28T01:53:10.312Z,8.00
2022-11-28T01:55:41.617Z,8.02
2022-11-28T01:58:09.581Z,7.96
2022-11-28T02:00:36.279Z,8.03
2022-11-28T02:03:13.159Z,8.05
2022-11-28T02:05:40.472Z,8.06
2022-11-28T02:08:09.054Z,8.10
2022-11-28T02:11:09.770Z,8.09
2022-11-28T02:14:11.938Z,8.08
2022-11-28T02:17:00.340Z,8.08
2022-11-28T02:19:45.781Z,8.05
2022-11-28T02:22:29.376Z,8.01
2022-11-28T02:25:33.655Z,8.06
2022-11-28T02:28:12.334Z,8.05
2022-11-28T02:30:49.989Z,7.98
2022-11-28T02:33:19.692Z,7.93
2022-11-28T02:36:10.392Z,7.94
2022-11-28T02:39:13.227Z,7.97
2022-11-28T02:41:47.579Z,7.98
2022-11-28T02:44:19.233Z,8.01
2022-11-28T02:47:23.549Z,8.08
2022-11-28T02:50:09.056Z,8.02
2022-11-28T02:52:59.082Z,7.99
2022-11-28T02:55:26.805Z,8.03
2022-11-28T02:57:54.862Z,8.06
2022-11-28T03:00:33.084Z,8.06
2022-11-28T03:03:11.933Z,8.14
2022-11-28T03:05:58.262Z,8.17
2022-11-28T03:08:50.248Z,8.21
2022-11-28T03:11:42.955Z,8.21
2022-11-28T03:14:46.548Z,8.23
2022-11-28T03:17:22.328Z,8.25
2022-11-28T03:19:49.010Z,8.26
2022-11-28T03:22:36.905Z,8.25
2022-11-28T03:25:47.118Z,8.29
2022-11-28T03:28:43.445Z,8.32
2022-11-28T03:31:38.702Z,8.30
2022-11-28T03:34:12.129Z,8.28
2022-11-28T03:36:43.019Z,8.30
2022-11-28T03:39:14.628Z,8.29
2022-11-28T03:41:48.383Z,8.31
2022-11-28T03:44:21.525Z,8.32
2022-11-28T03:46:50.117Z,8.33
2022-11-28T03:49:23.912Z,8.32
2022-11-28T03:51:59.542Z,8.31
2022-11-28T03:54:37.444Z,8.27
2022-11-28T03:57:19.057Z,8.27
2022-11-28T03:59:54.274Z,8.25
2022-11-28T04:02:31.625Z,8.24
2022-11-28T04:04:58.400Z,8.18
2022-11-28T04:07:40.329Z,8.20
2022-11-28T04:10:21.444Z,8.21
2022-11-28T04:13:20.620Z,8.18
2022-11-28T04:16:03.489Z,8.14
2022-11-28T04:19:08.162Z,8.11
2022-11-28T04:21:43.579Z,8.04
2022-11-28T04:24:21.730Z,8.01
2022-11-28T04:26:54.743Z,7.97
2022-11-28T04:29:23.784Z,7.98
2022-11-28T04:31:55.680Z,7.98
2022-11-28T04:34:24.428Z,7.98
2022-11-28T04:36:52.566Z,7.98
2022-11-28T04:39:21.852Z,8.02
2022-11-28T04:42:00.082Z,8.05
2022-11-28T04:44:37.526Z,8.11
2022-11-28T04:47:05.089Z,8.12
2022-11-28T04:49:32.347Z,8.15
2022-11-28T04:52:03.165Z,8.14
2022-11-28T04:54:52.157Z,8.15
2022-11-28T04:57:33.631Z,8.12
2022-11-28T05:00:01.944Z,8.10
2022-11-28T05:02:29.331Z,8.02
2022-11-28T05:04:56.514Z,7.91
2022-11-28T05:07:24.257Z,7.82
2022-11-28T05:09:51.530Z,7.69
2022-11-28T05:12:18.180Z,7.62
2022-11-28T05:14:44.945Z,7.55
2022-11-28T05:17:13.478Z,7.46
2022-11-28T05:19:40.217Z,7.34
2022-11-28T05:22:06.865Z,7.26
2022-11-28T05:24:33.587Z,7.18
2022-11-28T05:27:00.715Z,7.10
2022-11-28T05:29:27.445Z,7.07
2022-11-28T05:31:54.234Z,7.06
2022-11-28T05:34:21.094Z,7.03
2022-11-28T05:36:47.726Z,7.00
2022-11-28T05:39:14.456Z,6.94
2022-11-28T05:41:42.402Z,6.88
2022-11-28T05:44:10.213Z,6.82
2022-11-28T05:46:36.911Z,6.80
2022-11-28T05:49:03.685Z,6.77
2022-11-28T05:51:30.567Z,6.73
2022-11-28T05:53:57.356Z,6.79
2022-11-28T05:56:24.083Z,6.81
2022-11-28T05:58:52.733Z,6.77
2022-11-28T06:01:22.899Z,6.72
2022-11-28T06:03:49.626Z,6.70
2022-11-28T06:06:21.711Z,6.73
2022-11-28T06:08:51.559Z,6.69
2022-11-28T06:11:19.939Z,6.70
2022-11-28T06:13:48.410Z,6.65
2022-11-28T06:16:18.080Z,6.64
2022-11-28T06:18:46.802Z,6.64
2022-11-28T06:21:15.097Z,6.61
2022-11-28T06:23:42.520Z,6.58
2022-11-28T06:26:14.945Z,6.50
2022-11-28T06:28:42.257Z,6.55
2022-11-28T06:31:17.973Z,6.48
2022-11-28T06:33:45.088Z,6.36
2022-11-28T06:36:13.383Z,6.24
2022-11-28T06:38:40.292Z,6.19
2022-11-28T06:41:10.255Z,6.08
2022-11-28T06:43:37.824Z,6.00
2022-11-28T06:46:04.693Z,5.92
2022-11-28T06:48:32.268Z,5.88
2022-11-28T06:51:03.851Z,5.88
2022-11-28T06:53:31.685Z,5.79
2022-11-28T06:56:03.645Z,5.71
2022-11-28T06:58:30.342Z,5.68
2022-11-28T07:00:57.105Z,5.65
2022-11-28T07:03:23.848Z,5.64
2022-11-28T07:05:50.496Z,5.58
2022-11-28T07:08:17.365Z,5.55
2022-11-28T07:10:44.016Z,5.48
2022-11-28T07:13:10.711Z,5.48
2022-11-28T07:15:37.338Z,5.51
2022-11-28T07:18:04.035Z,5.48
2022-11-28T07:20:30.687Z,5.49
2022-11-28T07:22:57.359Z,5.51
2022-11-28T07:25:24.095Z,5.58
2022-11-28T07:27:50.841Z,5.65
2022-11-28T07:30:17.499Z,5.59
2022-11-28T07:32:44.253Z,5.55
2022-11-28T07:35:12.194Z,5.53
2022-11-28T07:37:38.894Z,5.59
2022-11-28T07:40:06.298Z,5.64
2022-11-28T07:42:33.074Z,5.63
2022-11-28T07:45:06.647Z,5.59
2022-11-28T07:47:33.987Z,5.53
2022-11-28T07:50:00.703Z,5.52
2022-11-28T07:52:27.427Z,5.57
2022-11-28T07:54:54.165Z,5.67
2022-11-28T07:57:20.892Z,5.73
2022-11-28T07:59:47.587Z,5.73
2022-11-28T08:02:14.393Z,5.79
2022-11-28T08:04:47.761Z,5.88
2022-11-28T08:07:17.314Z,5.85
2022-11-28T08:09:44.462Z,5.78
2022-11-28T08:12:11.458Z,5.77
2022-11-28T08:14:38.147Z,5.69
2022-11-28T08:17:04.930Z,5.65
2022-11-28T08:19:35.060Z,5.70
2022-11-28T08:22:02.735Z,5.83
2022-11-28T08:24:29.613Z,5.91
2022-11-28T08:26:57.054Z,5.99
2022-11-28T08:29:23.731Z,6.06
2022-11-28T08:31:50.444Z,6.08
2022-11-28T08:34:17.216Z,6.11
2022-11-28T08:36:44.304Z,6.15
2022-11-28T08:39:27.538Z,6.18
2022-11-28T08:41:59.000Z,6.23
2022-11-28T08:44:26.366Z,6.31
2022-11-28T08:46:53.588Z,6.34
2022-11-28T08:49:20.870Z,6.39
2022-11-28T08:51:47.536Z,6.40
2022-11-28T08:54:14.866Z,6.41
2022-11-28T08:56:41.562Z,6.48
2022-11-28T08:59:08.324Z,6.55
2022-11-28T09:01:35.122Z,6.53
2022-11-28T09:04:02.308Z,6.73
2022-11-28T09:06:29.208Z,7.10
2022-11-28T09:08:56.019Z,7.47
2022-11-28T09:11:23.463Z,7.85
2022-11-28T09:13:51.156Z,8.15
2022-11-28T09:16:18.088Z,8.14
2022-11-28T09:18:45.053Z,8.51
2022-11-28T09:21:14.381Z,8.23
2022-11-28T09:23:43.368Z,8.10
2022-11-28T09:26:11.833Z,8.33
2022-11-28T09:28:38.826Z,8.38
2022-11-28T09:31:06.801Z,8.46
2022-11-28T09:33:34.241Z,8.59
2022-11-28T09:36:13.079Z,8.19
2022-11-28T09:38:39.950Z,8.29
2022-11-28T09:41:28.436Z,8.42
2022-11-28T09:44:18.023Z,8.42
2022-11-28T09:46:48.095Z,8.76
2022-11-28T09:49:43.502Z,9.00
2022-11-28T09:52:14.944Z,8.93
2022-11-28T09:54:47.051Z,9.21
2022-11-28T09:57:26.322Z,9.28
2022-11-28T09:59:53.245Z,9.23
2022-11-28T10:02:32.098Z,9.43
2022-11-28T10:05:05.177Z,9.61
2022-11-28T10:08:13.965Z,9.82
2022-11-28T10:10:58.126Z,9.93
2022-11-28T10:14:00.267Z,9.99
2022-11-28T10:16:51.337Z,10.01
2022-11-28T10:22:20.346Z,10.00
2022-11-28T10:24:57.562Z,10.06
2022-11-28T10:27:33.036Z,10.02
2022-11-28T10:30:06.165Z,10.14
2022-11-28T10:32:44.833Z,9.95
2022-11-28T10:35:28.516Z,9.89
2022-11-28T10:37:56.310Z,8.95
2022-11-28T10:40:35.231Z,8.79
2022-11-28T10:43:06.275Z,9.00
2022-11-28T10:45:46.812Z,8.83
2022-11-28T10:48:40.612Z,8.54
2022-11-28T10:51:26.750Z,8.84
2022-11-28T10:54:16.780Z,8.87
2022-11-28T10:57:07.148Z,8.82
2022-11-28T10:59:49.482Z,9.05
2022-11-28T11:02:40.856Z,8.89
2022-11-28T11:05:13.375Z,8.95
2022-11-28T11:07:47.645Z,8.86
2022-11-28T11:10:19.554Z,8.96
2022-11-28T11:12:49.801Z,8.94
2022-11-28T11:15:24.837Z,9.11
2022-11-28T11:17:52.047Z,9.10
2022-11-28T11:20:33.745Z,9.14
2022-11-28T11:23:21.940Z,9.14
2022-11-28T11:25:58.266Z,9.06
2022-11-28T11:28:32.549Z,9.00
2022-11-28T11:31:05.049Z,9.09
2022-11-28T11:33:37.074Z,9.10
2022-11-28T11:36:19.026Z,9.09
2022-11-28T11:38:45.763Z,8.97
2022-11-28T11:41:42.724Z,9.01
2022-11-28T11:44:15.210Z,8.98
2022-11-28T11:46:54.886Z,8.95
2022-11-28T11:49:33.195Z,8.95
2022-11-28T11:52:04.744Z,8.93
2022-11-28T11:54:31.673Z,8.91
2022-11-28T11:57:24.878Z,8.86
2022-11-28T11:59:53.022Z,8.76
2022-11-28T12:02:27.912Z,8.75
2022-11-28T12:05:09.901Z,8.71
2022-11-28T12:07:47.106Z,8.68
2022-11-28T12:10:19.576Z,8.63
2022-11-28T12:12:46.228Z,8.67
2022-11-28T12:15:19.757Z,8.57
2022-11-28T12:18:12.689Z,8.50
2022-11-28T12:20:39.490Z,8.46
2022-11-28T12:23:17.555Z,8.50
2022-11-28T12:25:55.895Z,8.46
2022-11-28T12:28:43.487Z,8.42
2022-11-28T12:31:31.701Z,8.38
2022-11-28T12:34:11.603Z,8.34
2022-11-28T12:37:00.797Z,8.32
2022-11-28T12:39:49.322Z,8.39
2022-11-28T12:42:53.540Z,8.35
2022-11-28T12:45:28.980Z,8.33
2022-11-28T12:48:01.790Z,8.31
2022-11-28T12:50:39.600Z,8.35
2022-11-28T12:53:18.071Z,8.38
2022-11-28T12:55:53.534Z,8.31
2022-11-28T12:58:29.734Z,8.25
2022-11-28T13:01:35.403Z,8.27
2022-11-28T13:04:39.014Z,8.26
2022-11-28T13:07:27.443Z,8.20
2022-11-28T13:10:12.229Z,8.21
2022-11-28T13:12:46.218Z,8.24
2022-11-28T13:15:21.251Z,8.22
2022-11-28T13:17:53.415Z,8.27
2022-11-28T13:20:28.752Z,8.29
2022-11-28T13:23:01.181Z,8.34
2022-11-28T13:25:59.984Z,8.45
2022-11-28T13:28:42.689Z,8.61
2022-11-28T13:31:25.518Z,8.69
2022-11-28T13:33:57.144Z,8.83
2022-11-28T13:39:34.635Z,9.05
2022-11-28T13:43:04.050Z,8.99
2022-11-28T13:45:42.218Z,8.98
2022-11-28T13:48:57.299Z,9.02
2022-11-28T13:51:30.882Z,9.05
2022-11-28T13:54:21.760Z,9.02
2022-11-28T13:57:05.387Z,9.02
2022-11-28T13:59:33.851Z,8.91
2022-11-28T14:02:03.876Z,8.81
2022-11-28T14:04:32.748Z,8.69
2022-11-28T14:07:06.556Z,8.62
2022-11-28T14:10:01.380Z,8.51
2022-11-28T14:12:36.226Z,8.40
2022-11-28T14:15:07.236Z,8.32
2022-11-28T14:17:54.520Z,8.23
2022-11-28T14:20:38.772Z,8.17
2022-11-28T14:23:22.771Z,8.14
2022-11-28T14:25:52.251Z,8.13
2022-11-28T14:28:30.552Z,8.17
2022-11-28T14:31:31.085Z,8.10
2022-11-28T14:34:04.714Z,8.00
2022-11-28T14:36:37.405Z,7.93
2022-11-28T14:39:13.054Z,7.84
2022-11-28T14:42:04.763Z,7.74
2022-11-28T14:44:45.650Z,7.63
2022-11-28T14:47:21.355Z,7.53
2022-11-28T14:50:06.829Z,7.59
2022-11-28T14:52:39.651Z,7.62
2022-11-28T14:55:08.191Z,7.64
2022-11-28T14:57:37.508Z,7.58
2022-11-28T15:00:15.225Z,7.51
2022-11-28T15:03:07.764Z,7.48
2022-11-28T15:05:47.942Z,7.43
2022-11-28T15:08:36.861Z,7.34
2022-11-28T15:11:04.099Z,7.30
2022-11-28T15:13:46.028Z,7.22
2022-11-28T15:16:17.623Z,7.17
2022-11-28T15:19:08.342Z,7.13
2022-11-28T15:21:43.920Z,7.13
2022-11-28T15:24:36.194Z,7.08
2022-11-28T15:27:09.185Z,6.99
2022-11-28T15:29:36.941Z,6.95
2022-11-28T15:32:05.148Z,6.96
2022-11-28T15:34:34.984Z,6.84
2022-11-28T15:37:15.079Z,6.73
2022-11-28T15:39:45.440Z,6.64
2022-11-28T15:42:34.680Z,6.61
2022-11-28T15:45:22.711Z,6.56
2022-11-28T15:47:51.767Z,6.51
2022-11-28T15:50:25.178Z,6.43
2022-11-28T15:53:04.658Z,6.39
2022-11-28T15:55:33.926Z,6.35
2022-11-28T15:58:23.584Z,6.36
2022-11-28T16:00:58.150Z,6.32
2022-11-28T16:03:29.106Z,6.27
2022-11-28T16:05:57.967Z,6.25
2022-11-28T16:08:33.804Z,6.23
2022-11-28T16:11:05.273Z,6.28
2022-11-28T16:13:32.977Z,6.28
2022-11-28T16:16:04.212Z,6.23
2022-11-28T16:18:31.185Z,6.17
2022-11-28T16:21:00.882Z,6.13
2022-11-28T16:23:32.516Z,6.08
2022-11-28T16:26:05.004Z,6.00
2022-11-28T16:28:38.971Z,5.99
2022-11-28T16:31:13.534Z,5.96
2022-11-28T16:33:47.863Z,5.87
2022-11-28T16:36:34.005Z,5.86
2022-11-28T16:39:09.940Z,5.80
2022-11-28T16:41:41.027Z,5.71
2022-11-28T16:44:14.353Z,5.72
2022-11-28T16:46:58.741Z,5.70
2022-11-28T16:49:44.866Z,5.69
2022-11-28T16:52:15.452Z,5.68
2022-11-28T16:54:42.275Z,5.61
2022-11-28T16:57:11.205Z,5.62
2022-11-28T16:59:38.038Z,5.61
2022-11-28T17:02:13.548Z,5.60
2022-11-28T17:04:40.462Z,5.67
2022-11-28T17:07:11.146Z,5.63
2022-11-28T17:09:37.847Z,5.63
2022-11-28T17:12:08.243Z,5.61
2022-11-28T17:14:35.292Z,5.59
2022-11-28T17:17:02.039Z,5.65
2022-11-28T17:19:29.108Z,5.62
2022-11-28T17:21:59.486Z,5.60
2022-11-28T17:24:35.851Z,5.59
2022-11-28T17:27:03.270Z,5.51
2022-11-28T17:29:30.060Z,5.36
2022-11-28T17:31:58.952Z,5.38
2022-11-28T17:34:28.516Z,5.24
2022-11-28T17:36:55.317Z,5.31
2022-11-28T17:39:21.975Z,5.29
2022-11-28T17:41:49.746Z,5.29
2022-11-28T17:44:21.873Z,5.32
2022-11-28T17:46:50.125Z,5.41
2022-11-28T17:49:18.240Z,5.41
2022-11-28T17:51:45.317Z,5.40
2022-11-28T17:54:17.757Z,5.40
2022-11-28T17:56:46.036Z,5.32
2022-11-28T17:59:14.367Z,5.28
2022-11-28T18:01:42.025Z,5.28
2022-11-28T18:04:09.320Z,5.22
2022-11-28T18:06:36.460Z,5.14
2022-11-28T18:09:11.415Z,5.02
2022-11-28T18:11:39.992Z,5.07
2022-11-28T18:14:07.606Z,5.11
2022-11-28T18:16:36.135Z,5.08
2022-11-28T18:19:04.247Z,5.03
2022-11-28T18:21:32.069Z,4.97
2022-11-28T18:23:58.922Z,4.98
2022-11-28T18:26:26.495Z,4.97
2022-11-28T18:28:54.219Z,5.00
2022-11-28T18:31:26.398Z,4.98
2022-11-28T18:34:00.286Z,4.99
2022-11-28T18:36:30.872Z,4.95
2022-11-28T18:38:59.790Z,4.89
2022-11-28T18:41:27.421Z,4.91
2022-11-28T18:44:04.995Z,4.88
2022-11-28T18:46:33.560Z,4.90
2022-11-28T18:49:01.012Z,4.82
2022-11-28T18:51:33.335Z,4.74
2022-11-28T18:54:04.170Z,4.71
2022-11-28T18:56:31.648Z,4.69
2022-11-28T18:58:59.062Z,4.76
2022-11-28T19:01:30.182Z,4.80
2022-11-28T19:04:02.867Z,4.78
2022-11-28T19:06:30.824Z,4.69
2022-11-28T19:08:59.610Z,4.73
2022-11-28T19:11:28.522Z,4.68
2022-11-28T19:14:21.844Z,4.57
2022-11-28T19:16:49.546Z,4.50
2022-11-28T19:19:17.852Z,4.56
2022-11-28T19:21:44.926Z,4.53
2022-11-28T19:24:12.917Z,4.46
2022-11-28T19:26:39.756Z,4.39
2022-11-28T19:29:07.021Z,4.34
2022-11-28T19:31:35.686Z,4.35
2022-11-28T19:34:11.383Z,4.35
2022-11-28T19:36:41.066Z,4.36
2022-11-28T19:39:12.113Z,4.28
2022-11-28T19:41:39.148Z,4.35
2022-11-28T19:44:06.195Z,4.33
2022-11-28T19:46:35.728Z,4.31
2022-11-28T19:49:04.829Z,4.28
2022-11-28T19:51:31.632Z,4.27
2022-11-28T19:54:03.219Z,4.30
2022-11-28T19:56:32.436Z,4.28
2022-11-28T19:58:59.985Z,4.21
2022-11-28T20:01:28.221Z,4.18
2022-11-28T20:03:55.536Z,4.15
2022-11-28T20:06:25.732Z,4.06
2022-11-28T20:08:54.592Z,4.11
2022-11-28T20:11:24.677Z,4.08
2022-11-28T20:14:10.190Z,4.08
2022-11-28T20:16:37.808Z,4.04
2022-11-28T20:19:05.681Z,4.00
2022-11-28T20:21:33.709Z,4.00
2022-11-28T20:24:05.165Z,3.99
2022-11-28T20:26:40.515Z,3.96
2022-11-28T20:29:11.997Z,3.98
2022-11-28T20:31:45.480Z,3.95
2022-11-28T20:34:17.030Z,3.94
2022-11-28T20:36:45.979Z,3.90
2022-11-28T20:39:13.241Z,3.89
2022-11-28T20:41:39.993Z,3.81
2022-11-28T20:44:06.759Z,3.75
2022-11-28T20:46:35.533Z,3.76
2022-11-28T20:49:05.055Z,3.79
2022-11-28T20:51:33.513Z,3.78
2022-11-28T20:54:01.151Z,3.76
2022-11-28T20:56:30.838Z,3.75
2022-11-28T20:59:00.571Z,3.72
2022-11-28T21:01:30.727Z,3.77
2022-11-28T21:03:57.558Z,3.63
2022-11-28T21:06:24.784Z,3.68
2022-11-28T21:08:51.555Z,3.65
2022-11-28T21:14:15.597Z,3.64
2022-11-28T21:16:42.386Z,3.60
2022-11-28T21:19:09.544Z,3.57
2022-11-28T21:21:38.387Z,3.52
2022-11-28T21:24:08.727Z,3.50
2022-11-28T21:26:40.966Z,3.57
2022-11-28T21:29:11.980Z,3.56
2022-11-28T21:31:42.926Z,3.55
2022-11-28T21:34:14.388Z,3.51
2022-11-28T21:36:41.487Z,3.50
2022-11-28T21:39:11.885Z,3.48
2022-11-28T21:41:38.627Z,3.46
2022-11-28T21:44:05.470Z,3.51
2022-11-28T21:46:32.926Z,3.53
2022-11-28T21:48:59.853Z,3.52
2022-11-28T21:51:28.684Z,3.44
2022-11-28T21:53:57.606Z,3.46
2022-11-28T21:56:25.347Z,3.45
2022-11-28T21:58:53.539Z,3.42
2022-11-28T22:01:21.340Z,3.37
2022-11-28T22:03:48.495Z,3.33
2022-11-28T22:06:23.371Z,3.35
2022-11-28T22:08:51.653Z,3.30
2022-11-28T22:11:19.793Z,3.32
2022-11-28T22:13:47.586Z,3.29
2022-11-28T22:16:24.007Z,3.26
2022-11-28T22:18:52.923Z,3.20
2022-11-28T22:21:50.473Z,3.24
2022-11-28T22:24:08.189Z,3.17
2022-11-28T22:26:35.115Z,3.14
2022-11-28T22:29:04.170Z,3.13
2022-11-28T22:31:32.824Z,3.12
2022-11-28T22:33:59.985Z,3.15
2022-11-28T22:36:26.979Z,3.13
2022-11-28T22:38:55.966Z,3.10
2022-11-28T22:41:29.060Z,3.11
2022-11-28T22:44:01.158Z,3.11
2022-11-28T22:46:29.845Z,3.14
2022-11-28T22:49:00.015Z,3.17
2022-11-28T22:51:28.262Z,3.13
2022-11-28T22:53:59.420Z,3.01
2022-11-28T22:56:28.485Z,3.05
2022-11-28T22:58:55.449Z,2.97
2022-11-28T23:01:29.971Z,2.97
2022-11-28T23:04:11.342Z,2.95
2022-11-28T23:07:38.257Z,2.99
2022-11-28T23:10:48.040Z,2.94
2022-11-28T23:13:36.828Z,2.94
2022-11-28T23:16:29.222Z,2.89
2022-11-28T23:20:00.616Z,2.90
2022-11-28T23:22:42.601Z,2.80
2022-11-28T23:25:33.027Z,2.87
2022-11-28T23:28:06.323Z,2.76
2022-11-28T23:34:21.107Z,2.65
2022-11-28T23:36:51.386Z,2.62
2022-11-28T23:43:26.620Z,2.53
2022-11-28T23:45:59.521Z,2.52
2022-11-28T23:52:53.809Z,2.52
2022-11-28T23:55:20.571Z,2.46
2022-11-28T23:57:47.469Z,2.50
